createdAt,value
2022-11-14T00:00:44.894Z,6.10
2022-11-14T00:03:13.988Z,7.00
2022-11-14T00:05:43.745Z,7.00
2022-11-14T00:08:17.325Z,6.30
2022-11-14T00:10:47.109Z,6.30
2022-11-14T00:13:15.688Z,5.70
2022-11-14T00:15:45.856Z,6.00
2022-11-14T00:18:13.767Z,5.70
2022-11-14T00:20:41.632Z,6.30
2022-11-14T00:23:09.540Z,6.60
2022-11-14T00:25:37.434Z,6.50
2022-11-14T00:28:05.369Z,6.20
2022-11-14T00:30:33.281Z,5.80
2022-11-14T00:33:02.538Z,6.20
2022-11-14T00:35:30.429Z,5.80
2022-11-14T00:37:58.310Z,6.30
2022-11-14T00:40:26.186Z,6.60
2022-11-14T00:42:54.046Z,6.40
2022-11-14T00:45:21.931Z,6.20
2022-11-14T00:47:49.866Z,5.60
2022-11-14T00:50:19.254Z,6.40
2022-11-14T00:52:47.093Z,5.60
2022-11-14T00:55:15.001Z,6.10
2022-11-14T00:57:42.881Z,5.60
2022-11-14T01:00:14.579Z,5.60
2022-11-14T01:02:42.508Z,5.60
2022-11-14T01:05:11.441Z,6.60
2022-11-14T01:07:40.645Z,5.60
2022-11-14T01:10:10.002Z,6.50
2022-11-14T01:12:38.209Z,5.60
2022-11-14T01:15:06.974Z,5.80
2022-11-14T01:17:35.171Z,5.60
2022-11-14T01:20:03.135Z,7.30
2022-11-14T01:22:31.725Z,5.50
2022-11-14T01:25:00.919Z,5.50
2022-11-14T01:27:32.144Z,6.10
2022-11-14T01:30:00.031Z,6.50
2022-11-14T01:32:28.584Z,6.10
2022-11-14T01:34:56.545Z,6.50
2022-11-14T01:37:24.540Z,6.30
2022-11-14T01:39:52.454Z,6.20
2022-11-14T01:42:25.963Z,6.70
2022-11-14T01:44:55.273Z,6.30
2022-11-14T01:47:26.223Z,5.60
2022-11-14T01:49:57.021Z,6.50
2022-11-14T01:52:28.404Z,6.40
2022-11-14T01:55:02.024Z,6.10
2022-11-14T01:57:34.641Z,6.00
2022-11-14T02:00:09.373Z,5.70
2022-11-14T02:02:38.324Z,6.40
2022-11-14T02:05:09.945Z,5.10
2022-11-14T02:07:40.909Z,5.10
2022-11-14T02:10:11.012Z,5.90
2022-11-14T02:12:40.293Z,5.10
2022-11-14T02:15:10.297Z,6.50
2022-11-14T02:17:38.231Z,5.10
2022-11-14T02:20:17.947Z,5.20
2022-11-14T02:22:45.861Z,5.20
2022-11-14T02:25:17.681Z,6.20
2022-11-14T02:27:45.575Z,6.50
2022-11-14T02:30:16.688Z,5.90
2022-11-14T02:33:09.436Z,5.20
2022-11-14T02:35:33.802Z,5.30
2022-11-14T02:38:01.645Z,5.20
2022-11-14T02:40:29.501Z,6.00
2022-11-14T02:42:57.391Z,5.20
2022-11-14T02:45:25.259Z,6.40
2022-11-14T02:47:53.431Z,5.20
2022-11-14T02:50:21.284Z,5.20
2022-11-14T02:52:50.522Z,6.50
2022-11-14T02:55:18.870Z,5.20
2022-11-14T02:57:46.765Z,5.20
2022-11-14T03:00:15.635Z,5.20
2022-11-14T03:02:43.543Z,5.20
2022-11-14T03:05:11.578Z,6.70
2022-11-14T03:07:39.601Z,5.90
2022-11-14T03:10:09.831Z,5.50
2022-11-14T03:12:38.208Z,5.10
2022-11-14T03:15:06.796Z,6.00
2022-11-14T03:17:35.502Z,5.00
2022-11-14T03:20:03.361Z,5.00
2022-11-14T03:22:31.325Z,5.00
2022-11-14T03:24:59.165Z,6.40
2022-11-14T03:27:28.422Z,4.90
2022-11-14T03:29:56.307Z,6.40
2022-11-14T03:32:24.393Z,4.90
2022-11-14T03:34:52.278Z,4.90
2022-11-14T03:37:20.224Z,6.40
2022-11-14T03:39:48.434Z,6.10
2022-11-14T03:42:16.301Z,6.30
2022-11-14T03:44:45.565Z,6.60
2022-11-14T03:47:13.426Z,5.00
2022-11-14T03:49:41.488Z,5.00
2022-11-14T03:52:09.361Z,5.00
2022-11-14T03:54:37.268Z,6.30
2022-11-14T03:57:05.573Z,5.70
2022-11-14T03:59:33.493Z,6.10
2022-11-14T04:02:02.736Z,5.00
2022-11-14T04:04:30.614Z,5.10
2022-11-14T04:06:58.595Z,6.50
2022-11-14T04:09:26.524Z,6.30
2022-11-14T04:11:54.393Z,5.10
2022-11-14T04:14:22.278Z,5.70
2022-11-14T04:16:50.208Z,6.00
2022-11-14T04:19:19.456Z,5.00
2022-11-14T04:21:47.298Z,5.10
2022-11-14T04:24:15.229Z,6.30
2022-11-14T04:26:43.070Z,6.20
2022-11-14T04:29:10.941Z,6.50
2022-11-14T04:31:38.829Z,6.40
2022-11-14T04:34:06.741Z,4.10
2022-11-14T04:36:36.026Z,6.70
2022-11-14T04:39:04.217Z,5.90
2022-11-14T04:41:32.124Z,5.00
2022-11-14T04:44:00.008Z,5.00
2022-11-14T04:46:27.931Z,5.70
2022-11-14T04:48:55.817Z,5.00
2022-11-14T04:51:23.775Z,5.70
2022-11-14T04:53:52.969Z,6.10
2022-11-14T04:56:23.124Z,6.40
2022-11-14T04:58:51.341Z,6.30
2022-11-14T05:01:19.337Z,6.20
2022-11-14T05:03:47.233Z,6.30
2022-11-14T05:06:15.214Z,4.80
2022-11-14T05:08:43.136Z,6.10
2022-11-14T05:11:16.389Z,5.20
2022-11-14T05:13:44.434Z,4.80
2022-11-14T05:16:13.196Z,5.70
2022-11-14T05:18:46.752Z,4.80
2022-11-14T05:21:16.285Z,6.60
2022-11-14T05:23:44.146Z,6.00
2022-11-14T05:26:16.326Z,4.80
2022-11-14T05:28:44.273Z,6.40
2022-11-14T05:31:14.975Z,4.80
2022-11-14T05:33:42.848Z,5.40
2022-11-14T05:36:12.554Z,4.70
2022-11-14T05:38:40.842Z,4.70
2022-11-14T05:41:09.866Z,5.90
2022-11-14T05:43:39.316Z,5.10
2022-11-14T05:46:08.922Z,6.60
2022-11-14T05:48:36.986Z,5.00
2022-11-14T05:51:06.426Z,6.50
2022-11-14T05:53:35.610Z,4.70
2022-11-14T05:56:04.125Z,5.30
2022-11-14T05:58:33.101Z,4.70
2022-11-14T06:01:07.682Z,6.60
2022-11-14T06:03:37.216Z,4.70
2022-11-14T06:06:07.455Z,4.70
2022-11-14T06:08:36.008Z,4.70
2022-11-14T06:11:05.278Z,6.30
2022-11-14T06:13:34.250Z,4.70
2022-11-14T06:16:02.821Z,6.00
2022-11-14T06:18:32.933Z,6.00
2022-11-14T06:21:01.609Z,6.20
2022-11-14T06:23:30.069Z,6.40
2022-11-14T06:26:01.191Z,4.70
2022-11-14T06:28:30.009Z,6.40
2022-11-14T06:31:00.001Z,5.20
2022-11-14T06:33:28.011Z,4.70
2022-11-14T06:36:01.109Z,4.70
2022-11-14T06:38:31.778Z,4.70
2022-11-14T06:41:04.147Z,4.60
2022-11-14T06:43:34.771Z,6.00
2022-11-14T06:46:02.779Z,5.50
2022-11-14T06:48:31.668Z,4.50
2022-11-14T06:51:02.133Z,6.00
2022-11-14T06:53:31.767Z,6.00
2022-11-14T06:56:01.642Z,6.00
2022-11-14T06:58:30.922Z,4.60
2022-11-14T07:01:07.329Z,4.50
2022-11-14T07:03:35.711Z,4.40
2022-11-14T07:06:05.957Z,6.40
2022-11-14T07:08:34.928Z,4.50
2022-11-14T07:11:03.944Z,4.50
2022-11-14T07:13:32.369Z,5.40
2022-11-14T07:16:00.841Z,4.50
2022-11-14T07:18:31.179Z,6.30
2022-11-14T07:21:00.358Z,5.90
2022-11-14T07:23:30.214Z,4.50
2022-11-14T07:26:01.841Z,4.50
2022-11-14T07:28:30.108Z,6.00
2022-11-14T07:30:58.317Z,4.50
2022-11-14T07:33:26.226Z,4.50
2022-11-14T07:35:54.155Z,4.50
2022-11-14T07:38:22.130Z,6.30
2022-11-14T07:40:59.889Z,4.50
2022-11-14T07:43:28.886Z,4.50
2022-11-14T07:46:00.905Z,4.50
2022-11-14T07:48:29.405Z,4.60
2022-11-14T07:51:00.247Z,5.90
2022-11-14T07:53:28.918Z,4.70
2022-11-14T07:56:02.593Z,4.70
2022-11-14T07:58:30.827Z,6.00
2022-11-14T08:01:01.824Z,6.50
2022-11-14T08:03:30.439Z,6.50
2022-11-14T08:06:02.202Z,6.60
2022-11-14T08:08:30.391Z,4.80
2022-11-14T08:11:00.405Z,6.20
2022-11-14T08:13:32.755Z,6.50
2022-11-14T08:16:10.785Z,6.10
2022-11-14T08:18:40.617Z,4.90
2022-11-14T08:21:08.983Z,6.70
2022-11-14T08:23:36.909Z,6.60
2022-11-14T08:26:06.431Z,6.50
2022-11-14T08:28:34.519Z,5.00
2022-11-14T08:31:03.414Z,7.00
2022-11-14T08:33:31.744Z,6.90
2022-11-14T08:36:02.233Z,5.00
2022-11-14T08:38:31.660Z,4.90
2022-11-14T08:40:59.894Z,4.90
2022-11-14T08:43:29.412Z,6.20
2022-11-14T08:46:01.664Z,6.60
2022-11-14T08:48:30.914Z,6.60
2022-11-14T08:50:59.415Z,5.00
2022-11-14T08:53:27.323Z,6.70
2022-11-14T08:55:55.294Z,6.40
2022-11-14T08:58:23.259Z,6.00
2022-11-14T09:00:52.608Z,5.20
2022-11-14T09:03:20.659Z,6.50
2022-11-14T09:05:52.764Z,5.30
2022-11-14T09:08:21.191Z,6.00
2022-11-14T09:10:49.322Z,5.40
2022-11-14T09:13:17.424Z,7.20
2022-11-14T09:15:45.452Z,6.20
2022-11-14T09:18:15.224Z,6.60
2022-11-14T09:20:43.217Z,5.70
2022-11-14T09:23:11.820Z,5.70
2022-11-14T09:25:39.718Z,6.60
2022-11-14T09:28:08.858Z,6.10
2022-11-14T09:30:37.786Z,6.00
2022-11-14T09:33:11.746Z,7.70
2022-11-14T09:35:41.378Z,6.40
2022-11-14T09:38:11.272Z,6.40
2022-11-14T09:40:50.494Z,6.20
2022-11-14T09:43:39.009Z,7.80
2022-11-14T09:46:20.306Z,6.30
2022-11-14T09:48:48.558Z,6.30
2022-11-14T09:51:22.200Z,6.40
2022-11-14T09:53:55.249Z,6.50
2022-11-14T09:56:26.096Z,6.70
2022-11-14T09:58:55.598Z,6.50
2022-11-14T10:01:33.458Z,6.60
2022-11-14T10:04:10.581Z,6.60
2022-11-14T10:06:52.063Z,6.70
2022-11-14T10:09:45.107Z,6.80
2022-11-14T10:12:19.705Z,6.80
2022-11-14T10:15:02.459Z,7.00
2022-11-14T10:17:51.680Z,6.90
2022-11-14T10:20:25.284Z,6.90
2022-11-14T10:23:10.770Z,7.00
2022-11-14T10:25:49.954Z,7.00
2022-11-14T10:28:32.368Z,7.10
2022-11-14T10:31:08.494Z,7.20
2022-11-14T10:33:47.283Z,7.30
2022-11-14T10:36:24.595Z,7.30
2022-11-14T10:39:01.461Z,7.40
2022-11-14T10:44:25.197Z,7.40
2022-11-14T10:46:57.265Z,7.40
2022-11-14T10:49:26.909Z,7.50
2022-11-14T10:51:57.344Z,7.60
2022-11-14T10:54:33.787Z,7.60
2022-11-14T10:57:01.881Z,7.70
2022-11-14T10:59:30.294Z,7.70
2022-11-14T11:01:59.509Z,7.70
2022-11-14T11:04:29.830Z,7.70
2022-11-14T11:06:59.983Z,7.80
2022-11-14T11:09:47.266Z,7.80
2022-11-14T11:12:19.032Z,7.90
2022-11-14T11:14:48.923Z,8.00
2022-11-14T11:17:23.202Z,8.40
2022-11-14T11:19:51.904Z,8.00
2022-11-14T11:22:32.000Z,8.00
2022-11-14T11:25:01.253Z,8.00
2022-11-14T11:27:30.664Z,8.10
2022-11-14T11:30:19.011Z,8.10
2022-11-14T11:32:46.991Z,8.10
2022-11-14T11:35:16.970Z,8.20
2022-11-14T11:37:49.617Z,8.20
2022-11-14T11:40:23.401Z,8.30
2022-11-14T11:45:48.188Z,8.30
2022-11-14T11:48:19.629Z,10.40
2022-11-14T11:50:47.670Z,8.30
2022-11-14T11:53:22.166Z,8.40
2022-11-14T11:55:54.399Z,8.40
2022-11-14T11:58:26.122Z,8.40
2022-11-14T12:00:55.836Z,8.40
2022-11-14T12:03:26.731Z,9.90
2022-11-14T12:06:06.147Z,8.50
2022-11-14T12:08:42.511Z,8.60
2022-11-14T12:11:15.124Z,8.60
2022-11-14T12:13:56.114Z,8.60
2022-11-14T12:16:41.183Z,8.60
2022-11-14T12:19:36.485Z,8.70
2022-11-14T12:22:18.302Z,8.70
2022-11-14T12:25:09.742Z,8.70
2022-11-14T12:27:50.534Z,8.70
2022-11-14T12:30:21.734Z,8.80
2022-11-14T12:32:54.110Z,8.70
2022-11-14T12:35:25.439Z,8.80
2022-11-14T12:37:56.312Z,8.90
2022-11-14T12:40:30.409Z,9.00
2022-11-14T12:43:01.474Z,8.90
2022-11-14T12:46:00.974Z,9.00
2022-11-14T12:48:34.661Z,9.10
2022-11-14T12:51:04.385Z,9.10
2022-11-14T12:53:45.511Z,9.10
2022-11-14T12:56:58.438Z,9.10
2022-11-14T12:59:41.151Z,9.10
2022-11-14T13:02:49.905Z,9.10
2022-11-14T13:05:30.182Z,9.10
2022-11-14T13:08:11.075Z,9.10
2022-11-14T13:10:40.609Z,9.10
2022-11-14T13:13:27.856Z,9.00
2022-11-14T13:16:16.481Z,9.10
2022-11-14T13:19:28.694Z,9.10
2022-11-14T13:22:21.438Z,9.10
2022-11-14T13:25:18.965Z,9.10
2022-11-14T13:31:08.483Z,9.20
2022-11-14T13:33:43.097Z,9.20
2022-11-14T13:36:12.285Z,9.20
2022-11-14T13:39:11.253Z,9.20
2022-11-14T13:42:08.222Z,9.20
2022-11-14T13:45:04.186Z,9.10
2022-11-14T13:48:00.601Z,9.10
2022-11-14T13:50:32.591Z,9.00
2022-11-14T13:53:00.913Z,9.00
2022-11-14T13:55:45.158Z,9.00
2022-11-14T13:58:26.225Z,8.90
2022-11-14T14:01:14.399Z,8.90
2022-11-14T14:04:05.063Z,8.80
2022-11-14T14:06:46.958Z,8.80
2022-11-14T14:09:24.346Z,8.70
2022-11-14T14:12:05.035Z,8.60
2022-11-14T14:14:57.715Z,8.50
2022-11-14T14:17:32.766Z,8.50
2022-11-14T14:20:18.351Z,8.40
2022-11-14T14:22:57.185Z,9.20
2022-11-14T14:25:30.441Z,8.30
2022-11-14T14:28:07.197Z,8.30
2022-11-14T14:30:35.213Z,8.30
2022-11-14T14:33:13.465Z,8.20
2022-11-14T14:35:51.695Z,8.20
2022-11-14T14:38:25.367Z,8.20
2022-11-14T14:40:55.989Z,8.10
2022-11-14T14:43:30.130Z,8.10
2022-11-14T14:45:58.286Z,8.00
2022-11-14T14:48:29.006Z,8.00
2022-11-14T14:50:59.805Z,8.00
2022-11-14T14:53:29.897Z,7.90
2022-11-14T14:55:59.249Z,7.80
2022-11-14T14:58:29.658Z,8.00
2022-11-14T15:01:00.788Z,7.60
2022-11-14T15:03:36.617Z,7.60
2022-11-14T15:06:18.849Z,7.60
2022-11-14T15:08:47.562Z,7.50
2022-11-14T15:11:16.366Z,7.50
2022-11-14T15:13:44.726Z,7.40
2022-11-14T15:16:13.220Z,7.30
2022-11-14T15:18:41.481Z,7.30
2022-11-14T15:21:17.439Z,7.30
2022-11-14T15:23:45.969Z,7.20
2022-11-14T15:26:19.043Z,7.10
2022-11-14T15:28:47.258Z,7.10
2022-11-14T15:31:20.644Z,7.00
2022-11-14T15:34:02.762Z,7.00
2022-11-14T15:36:32.157Z,6.90
2022-11-14T15:39:01.777Z,6.90
2022-11-14T15:41:30.805Z,7.10
2022-11-14T15:44:02.793Z,6.70
2022-11-14T15:46:42.787Z,6.70
2022-11-14T15:49:18.423Z,6.60
2022-11-14T15:51:50.439Z,6.60
2022-11-14T15:54:29.734Z,6.50
2022-11-14T15:56:59.634Z,6.50
2022-11-14T15:59:30.194Z,6.50
2022-11-14T16:02:02.966Z,6.40
2022-11-14T16:04:34.427Z,6.40
2022-11-14T16:07:03.850Z,6.50
2022-11-14T16:09:31.763Z,6.50
2022-11-14T16:11:59.676Z,6.40
2022-11-14T16:14:27.546Z,6.40
2022-11-14T16:16:55.389Z,6.30
2022-11-14T16:19:23.304Z,6.30
2022-11-14T16:21:51.181Z,6.30
2022-11-14T16:24:22.278Z,6.60
2022-11-14T16:26:50.946Z,6.30
2022-11-14T16:29:18.808Z,6.50
2022-11-14T16:31:47.202Z,6.30
2022-11-14T16:34:18.921Z,6.60
2022-11-14T16:36:48.500Z,6.10
2022-11-14T16:39:16.600Z,6.60
2022-11-14T16:41:45.824Z,6.00
2022-11-14T16:44:16.562Z,6.00
2022-11-14T16:46:46.415Z,6.80
2022-11-14T16:49:15.927Z,5.80
2022-11-14T16:51:49.624Z,6.10
2022-11-14T16:54:18.321Z,6.20
2022-11-14T16:56:48.417Z,5.80
2022-11-14T16:59:16.663Z,5.70
2022-11-14T17:01:44.687Z,5.70
2022-11-14T17:04:12.671Z,6.10
2022-11-14T17:06:40.718Z,5.80
2022-11-14T17:09:08.710Z,5.60
2022-11-14T17:11:36.547Z,5.50
2022-11-14T17:14:05.833Z,5.50
2022-11-14T17:16:33.701Z,6.10
2022-11-14T17:19:01.710Z,5.40
2022-11-14T17:21:35.541Z,5.40
2022-11-14T17:24:03.448Z,5.40
2022-11-14T17:26:31.412Z,5.30
2022-11-14T17:28:59.373Z,6.70
2022-11-14T17:31:31.449Z,5.30
2022-11-14T17:34:02.943Z,5.20
2022-11-14T17:36:31.715Z,5.20
2022-11-14T17:39:00.680Z,6.00
2022-11-14T17:41:29.206Z,5.90
2022-11-14T17:43:58.849Z,6.50
2022-11-14T17:46:28.109Z,5.10
2022-11-14T17:48:56.047Z,5.00
2022-11-14T17:51:25.429Z,6.10
2022-11-14T17:53:53.624Z,5.00
2022-11-14T17:56:23.310Z,5.00
2022-11-14T17:58:53.958Z,4.90
2022-11-14T18:01:24.131Z,4.90
2022-11-14T18:03:53.454Z,4.90
2022-11-14T18:06:22.520Z,5.00
2022-11-14T18:08:56.967Z,5.10
2022-11-14T18:11:25.952Z,5.20
2022-11-14T18:13:55.888Z,6.40
2022-11-14T18:16:31.430Z,5.80
2022-11-14T18:19:08.633Z,5.70
2022-11-14T18:21:38.535Z,5.80
2022-11-14T18:24:07.314Z,6.00
2022-11-14T18:26:35.194Z,6.00
2022-11-14T18:29:03.157Z,6.10
2022-11-14T18:31:33.151Z,6.30
2022-11-14T18:34:02.641Z,6.40
2022-11-14T18:36:32.223Z,6.50
2022-11-14T18:39:00.218Z,6.70
2022-11-14T18:41:28.135Z,6.80
2022-11-14T18:43:57.965Z,6.90
2022-11-14T18:46:27.029Z,6.90
2022-11-14T18:48:57.646Z,6.90
2022-11-14T18:51:27.836Z,7.00
2022-11-14T18:53:59.272Z,7.00
2022-11-14T18:56:27.807Z,7.00
2022-11-14T18:58:57.333Z,7.00
2022-11-14T19:01:29.221Z,7.00
2022-11-14T19:03:59.096Z,7.10
2022-11-14T19:06:27.702Z,7.10
2022-11-14T19:08:59.489Z,7.20
2022-11-14T19:11:44.951Z,7.20
2022-11-14T19:14:12.991Z,7.20
2022-11-14T19:16:40.958Z,7.30
2022-11-14T19:19:09.684Z,7.20
2022-11-14T19:21:37.763Z,7.20
2022-11-14T19:24:08.018Z,7.20
2022-11-14T19:26:35.993Z,7.20
2022-11-14T19:29:06.193Z,7.20
2022-11-14T19:31:34.527Z,7.20
2022-11-14T19:34:02.748Z,7.30
2022-11-14T19:36:58.300Z,7.30
2022-11-14T19:39:19.940Z,7.40
2022-11-14T19:41:47.835Z,7.50
2022-11-14T19:44:15.749Z,7.50
2022-11-14T19:46:47.496Z,7.50
2022-11-14T19:49:15.990Z,7.60
2022-11-14T19:51:43.959Z,7.60
2022-11-14T19:54:12.348Z,7.60
2022-11-14T19:56:41.633Z,7.70
2022-11-14T19:59:14.354Z,7.70
2022-11-14T20:01:43.442Z,7.80
2022-11-14T20:04:13.946Z,7.80
2022-11-14T20:06:43.032Z,7.80
2022-11-14T20:09:11.874Z,7.90
2022-11-14T20:11:41.362Z,7.90
2022-11-14T20:14:11.142Z,7.90
2022-11-14T20:16:39.283Z,8.50
2022-11-14T20:19:07.392Z,8.00
2022-11-14T20:21:35.902Z,8.00
2022-11-14T20:24:03.929Z,8.10
2022-11-14T20:26:31.986Z,8.10
2022-11-14T20:29:01.692Z,8.10
2022-11-14T20:31:31.266Z,8.70
2022-11-14T20:33:59.438Z,8.20
2022-11-14T20:36:38.979Z,8.20
2022-11-14T20:39:12.012Z,8.40
2022-11-14T20:41:39.983Z,8.40
2022-11-14T20:44:09.616Z,8.70
2022-11-14T20:46:37.585Z,8.50
2022-11-14T20:49:08.033Z,8.60
2022-11-14T20:51:36.502Z,8.60
2022-11-14T20:54:04.512Z,8.60
2022-11-14T20:56:32.466Z,8.60
2022-11-14T20:59:00.420Z,8.60
2022-11-14T21:01:29.994Z,8.60
2022-11-14T21:03:57.964Z,8.60
2022-11-14T21:06:25.817Z,9.00
2022-11-14T21:08:53.687Z,8.70
2022-11-14T21:11:22.403Z,8.70
2022-11-14T21:13:59.650Z,8.70
2022-11-14T21:16:32.589Z,8.70
2022-11-14T21:19:01.405Z,8.70
2022-11-14T21:21:31.241Z,9.00
2022-11-14T21:23:59.333Z,8.70
2022-11-14T21:26:28.974Z,8.70
2022-11-14T21:28:58.628Z,8.80
2022-11-14T21:31:31.439Z,8.80
2022-11-14T21:34:01.986Z,8.70
2022-11-14T21:36:44.502Z,8.70
2022-11-14T21:39:16.474Z,8.80
2022-11-14T21:41:45.268Z,8.80
2022-11-14T21:44:15.754Z,8.70
2022-11-14T21:46:46.153Z,8.70
2022-11-14T21:49:15.585Z,8.70
2022-11-14T21:51:43.502Z,8.70
2022-11-14T21:54:11.484Z,8.80
2022-11-14T21:56:39.460Z,8.90
2022-11-14T21:59:14.995Z,8.90
2022-11-14T22:02:02.613Z,8.90
2022-11-14T22:04:32.508Z,9.00
2022-11-14T22:07:02.061Z,9.00
2022-11-14T22:09:30.341Z,9.00
2022-11-14T22:11:58.288Z,9.00
2022-11-14T22:14:26.754Z,9.00
2022-11-14T22:16:54.654Z,8.90
2022-11-14T22:19:22.573Z,8.80
2022-11-14T22:21:51.991Z,8.70
2022-11-14T22:24:20.033Z,8.60
2022-11-14T22:26:47.942Z,8.60
2022-11-14T22:29:15.983Z,8.50
2022-11-14T22:31:43.937Z,8.50
2022-11-14T22:34:12.441Z,8.40
2022-11-14T22:36:40.346Z,8.30
2022-11-14T22:39:09.580Z,8.30
2022-11-14T22:41:37.868Z,8.20
2022-11-14T22:44:06.021Z,8.20
2022-11-14T22:46:33.942Z,8.20
2022-11-14T22:49:03.683Z,8.20
2022-11-14T22:51:31.720Z,8.30
2022-11-14T22:54:00.053Z,8.20
2022-11-14T22:56:30.397Z,8.10
2022-11-14T22:59:00.484Z,7.30
2022-11-14T23:01:31.058Z,8.10
2022-11-14T23:04:00.762Z,8.10
2022-11-14T23:06:29.763Z,8.10
2022-11-14T23:08:57.800Z,8.10
2022-11-14T23:11:27.354Z,8.00
2022-11-14T23:13:57.847Z,8.00
2022-11-14T23:16:27.656Z,8.00
2022-11-14T23:18:56.661Z,8.00
2022-11-14T23:21:26.904Z,7.90
2022-11-14T23:23:55.170Z,7.90
2022-11-14T23:26:24.102Z,7.80
2022-11-14T23:28:52.031Z,7.80
2022-11-14T23:31:21.871Z,7.80
2022-11-14T23:33:51.163Z,7.70
2022-11-14T23:36:19.298Z,7.60
2022-11-14T23:38:47.307Z,7.50
2022-11-14T23:41:18.312Z,7.50
2022-11-14T23:43:46.376Z,7.40
2022-11-14T23:46:14.644Z,7.40
2022-11-14T23:48:44.157Z,7.80
2022-11-14T23:51:13.524Z,7.30
2022-11-14T23:53:41.888Z,7.30
2022-11-14T23:56:12.490Z,7.20
2022-11-14T23:58:40.562Z,7.20
